sensor_id;sensor_type;location;lat;lon;timestamp;pressure;altitude;pressure_sealevel;temperature;humidity
57948;BME280;43754;56.992;24.292;2022-12-01T00:01:24;103637.97;;;-1.41;100.00
57948;BME280;43754;56.992;24.292;2022-12-01T00:03:56;103633.50;;;-1.36;100.00
57948;BME280;43754;56.992;24.292;2022-12-01T00:06:28;103633.47;;;-1.34;100.00
57948;BME280;43754;56.992;24.292;2022-12-01T00:09:00;103636.09;;;-1.34;100.00
57948;BME280;43754;56.992;24.292;2022-12-01T00:11:52;103632.47;;;-1.29;100.00
57948;BME280;43754;56.992;24.292;2022-12-01T00:14:24;103634.13;;;-1.25;100.00
57948;BME280;43754;56.992;24.292;2022-12-01T00:16:56;103632.25;;;-1.20;100.00
57948;BME280;43754;56.992;24.292;2022-12-01T00:19:28;103625.13;;;-1.15;100.00
57948;BME280;43754;56.992;24.292;2022-12-01T00:22:00;103618.41;;;-1.28;100.00
57948;BME280;43754;56.992;24.292;2022-12-01T00:24:33;103615.78;;;-1.28;100.00
57948;BME280;43754;56.992;24.292;2022-12-01T00:27:06;103625.53;;;-1.33;100.00
57948;BME280;43754;56.992;24.292;2022-12-01T00:29:38;103617.53;;;-1.27;100.00
57948;BME280;43754;56.992;24.292;2022-12-01T00:32:10;103611.38;;;-1.27;100.00
57948;BME280;43754;56.992;24.292;2022-12-01T00:34:42;103614.81;;;-1.24;100.00
57948;BME280;43754;56.992;24.292;2022-12-01T00:37:15;103612.06;;;-1.18;100.00
57948;BME280;43754;56.992;24.292;2022-12-01T00:39:46;103613.06;;;-1.25;100.00
57948;BME280;43754;56.992;24.292;2022-12-01T00:42:21;103616.56;;;-1.23;100.00
57948;BME280;43754;56.992;24.292;2022-12-01T00:44:53;103612.06;;;-1.19;100.00
57948;BME280;43754;56.992;24.292;2022-12-01T00:47:25;103611.13;;;-1.17;100.00
57948;BME280;43754;56.992;24.292;2022-12-01T00:49:57;103610.28;;;-1.17;100.00
57948;BME280;43754;56.992;24.292;2022-12-01T00:52:29;103612.28;;;-1.28;100.00
57948;BME280;43754;56.992;24.292;2022-12-01T00:55:00;103613.34;;;-1.37;100.00
57948;BME280;43754;56.992;24.292;2022-12-01T00:57:34;103620.22;;;-1.30;100.00
57948;BME280;43754;56.992;24.292;2022-12-01T01:00:07;103624.53;;;-1.27;100.00
57948;BME280;43754;56.992;24.292;2022-12-01T01:02:39;103617.44;;;-1.24;100.00
57948;BME280;43754;56.992;24.292;2022-12-01T01:05:11;103626.22;;;-1.23;100.00
57948;BME280;43754;56.992;24.292;2022-12-01T01:07:44;103626.09;;;-1.17;100.00
57948;BME280;43754;56.992;24.292;2022-12-01T01:10:16;103619.94;;;-1.18;100.00
57948;BME280;43754;56.992;24.292;2022-12-01T01:12:49;103631.41;;;-1.20;100.00
57948;BME280;43754;56.992;24.292;2022-12-01T01:15:21;103627.75;;;-1.13;100.00
57948;BME280;43754;56.992;24.292;2022-12-01T01:17:53;103621.66;;;-1.17;100.00
57948;BME280;43754;56.992;24.292;2022-12-01T01:20:25;103615.59;;;-1.19;100.00
57948;BME280;43754;56.992;24.292;2022-12-01T01:22:57;103619.84;;;-1.13;100.00
57948;BME280;43754;56.992;24.292;2022-12-01T01:25:31;103615.31;;;-1.08;100.00
57948;BME280;43754;56.992;24.292;2022-12-01T01:28:04;103611.78;;;-1.06;100.00
57948;BME280;43754;56.992;24.292;2022-12-01T01:30:38;103615.50;;;-1.16;100.00
57948;BME280;43754;56.992;24.292;2022-12-01T01:33:10;103623.44;;;-1.17;100.00
57948;BME280;43754;56.992;24.292;2022-12-01T01:35:42;103614.88;;;-1.27;100.00
57948;BME280;43754;56.992;24.292;2022-12-01T01:38:14;103619.56;;;-1.41;100.00
57948;BME280;43754;56.992;24.292;2022-12-01T01:40:46;103617.88;;;-1.44;100.00
57948;BME280;43754;56.992;24.292;2022-12-01T01:43:44;103616.84;;;-1.36;100.00
57948;BME280;43754;56.992;24.292;2022-12-01T01:46:18;103614.13;;;-1.32;100.00
57948;BME280;43754;56.992;24.292;2022-12-01T01:48:53;103619.16;;;-1.21;100.00
57948;BME280;43754;56.992;24.292;2022-12-01T01:51:29;103617.34;;;-1.19;100.00
57948;BME280;43754;56.992;24.292;2022-12-01T01:54:05;103624.28;;;-1.15;100.00
57948;BME280;43754;56.992;24.292;2022-12-01T01:56:38;103618.81;;;-1.06;100.00
57948;BME280;43754;56.992;24.292;2022-12-01T01:59:14;103617.84;;;-1.04;100.00
57948;BME280;43754;56.992;24.292;2022-12-01T02:01:50;103624.72;;;-0.97;100.00
57948;BME280;43754;56.992;24.292;2022-12-01T02:04:25;103618.50;;;-0.93;100.00
57948;BME280;43754;56.992;24.292;2022-12-01T02:06:58;103624.72;;;-0.97;100.00
57948;BME280;43754;56.992;24.292;2022-12-01T02:09:30;103616.84;;;-0.98;100.00
57948;BME280;43754;56.992;24.292;2022-12-01T02:12:11;103629.16;;;-0.99;100.00
57948;BME280;43754;56.992;24.292;2022-12-01T02:15:05;103631.78;;;-0.99;100.00
57948;BME280;43754;56.992;24.292;2022-12-01T02:17:44;103622.09;;;-0.97;100.00
57948;BME280;43754;56.992;24.292;2022-12-01T02:20:41;103623.88;;;-0.99;100.00
57948;BME280;43754;56.992;24.292;2022-12-01T02:26:38;103621.44;;;-1.06;100.00
57948;BME280;43754;56.992;24.292;2022-12-01T02:29:37;103610.19;;;-1.13;100.00
57948;BME280;43754;56.992;24.292;2022-12-01T02:32:17;103610.59;;;-1.31;100.00
57948;BME280;43754;56.992;24.292;2022-12-01T02:34:57;103612.38;;;-1.33;100.00
57948;BME280;43754;56.992;24.292;2022-12-01T02:37:32;103615.09;;;-1.38;100.00
57948;BME280;43754;56.992;24.292;2022-12-01T02:40:12;103614.28;;;-1.40;100.00
57948;BME280;43754;56.992;24.292;2022-12-01T02:42:50;103598.50;;;-1.40;100.00
57948;BME280;43754;56.992;24.292;2022-12-01T02:45:37;103604.56;;;-1.36;100.00
57948;BME280;43754;56.992;24.292;2022-12-01T02:48:17;103604.53;;;-1.34;100.00
57948;BME280;43754;56.992;24.292;2022-12-01T02:50:52;103602.63;;;-1.28;100.00
57948;BME280;43754;56.992;24.292;2022-12-01T02:53:26;103601.75;;;-1.28;100.00
57948;BME280;43754;56.992;24.292;2022-12-01T02:55:58;103607.88;;;-1.26;100.00
57948;BME280;43754;56.992;24.292;2022-12-01T02:58:30;103600.88;;;-1.29;100.00
57948;BME280;43754;56.992;24.292;2022-12-01T03:01:21;103607.88;;;-1.26;100.00
57948;BME280;43754;56.992;24.292;2022-12-01T03:04:04;103595.34;;;-1.17;100.00
57948;BME280;43754;56.992;24.292;2022-12-01T03:06:45;103602.44;;;-1.20;100.00
57948;BME280;43754;56.992;24.292;2022-12-01T03:09:28;103596.19;;;-1.15;100.00
57948;BME280;43754;56.992;24.292;2022-12-01T03:12:12;103603.09;;;-1.09;100.00
57948;BME280;43754;56.992;24.292;2022-12-01T03:14:59;103605.63;;;-1.06;100.00
57948;BME280;43754;56.992;24.292;2022-12-01T03:17:37;103609.06;;;-1.03;100.00
57948;BME280;43754;56.992;24.292;2022-12-01T03:20:15;103601.19;;;-1.04;100.00
57948;BME280;43754;56.992;24.292;2022-12-01T03:22:53;103596.91;;;-1.08;100.00
57948;BME280;43754;56.992;24.292;2022-12-01T03:25:28;103606.53;;;-1.07;100.00
57948;BME280;43754;56.992;24.292;2022-12-01T03:28:01;103606.59;;;-1.09;100.00
57948;BME280;43754;56.992;24.292;2022-12-01T03:30:56;103602.28;;;-1.13;100.00
57948;BME280;43754;56.992;24.292;2022-12-01T03:33:32;103603.13;;;-1.12;100.00
57948;BME280;43754;56.992;24.292;2022-12-01T03:36:09;103603.19;;;-1.14;100.00
57948;BME280;43754;56.992;24.292;2022-12-01T03:38:48;103593.66;;;-1.19;100.00
57948;BME280;43754;56.992;24.292;2022-12-01T03:41:26;103591.97;;;-1.22;100.00
57948;BME280;43754;56.992;24.292;2022-12-01T03:44:04;103600.84;;;-1.26;100.00
57948;BME280;43754;56.992;24.292;2022-12-01T03:46:42;103594.72;;;-1.28;100.00
57948;BME280;43754;56.992;24.292;2022-12-01T03:49:16;103590.44;;;-1.32;100.00
57948;BME280;43754;56.992;24.292;2022-12-01T03:51:56;103579.03;;;-1.31;100.00
57948;BME280;43754;56.992;24.292;2022-12-01T03:54:41;103584.19;;;-1.28;100.00
57948;BME280;43754;56.992;24.292;2022-12-01T03:57:22;103584.31;;;-1.32;100.00
57948;BME280;43754;56.992;24.292;2022-12-01T03:59:56;103586.16;;;-1.38;100.00
57948;BME280;43754;56.992;24.292;2022-12-01T04:02:28;103581.94;;;-1.43;100.00
57948;BME280;43754;56.992;24.292;2022-12-01T04:05:00;103582.78;;;-1.43;100.00
57948;BME280;43754;56.992;24.292;2022-12-01T04:07:34;103587.03;;;-1.37;100.00
57948;BME280;43754;56.992;24.292;2022-12-01T04:10:07;103578.31;;;-1.39;100.00
57948;BME280;43754;56.992;24.292;2022-12-01T04:12:39;103578.25;;;-1.36;100.00
57948;BME280;43754;56.992;24.292;2022-12-01T04:15:12;103582.75;;;-1.41;100.00
57948;BME280;43754;56.992;24.292;2022-12-01T04:17:45;103578.44;;;-1.44;100.00
57948;BME280;43754;56.992;24.292;2022-12-01T04:20:17;103583.66;;;-1.42;100.00
57948;BME280;43754;56.992;24.292;2022-12-01T04:22:50;103579.31;;;-1.45;100.00
57948;BME280;43754;56.992;24.292;2022-12-01T04:25:22;103580.38;;;-1.53;100.00
57948;BME280;43754;56.992;24.292;2022-12-01T04:27:54;103579.59;;;-1.57;100.00
57948;BME280;43754;56.992;24.292;2022-12-01T04:30:26;103577.94;;;-1.62;100.00
57948;BME280;43754;56.992;24.292;2022-12-01T04:32:58;103584.25;;;-1.69;100.00
57948;BME280;43754;56.992;24.292;2022-12-01T04:35:31;103581.75;;;-1.75;100.00
57948;BME280;43754;56.992;24.292;2022-12-01T04:38:04;103584.47;;;-1.80;100.00
57948;BME280;43754;56.992;24.292;2022-12-01T04:40:37;103578.44;;;-1.87;100.00
57948;BME280;43754;56.992;24.292;2022-12-01T04:43:09;103574.16;;;-1.91;100.00
57948;BME280;43754;56.992;24.292;2022-12-01T04:45:41;103584.81;;;-1.97;100.00
57948;BME280;43754;56.992;24.292;2022-12-01T04:48:13;103584.91;;;-2.03;100.00
57948;BME280;43754;56.992;24.292;2022-12-01T04:50:47;103591.09;;;-2.05;100.00
57948;BME280;43754;56.992;24.292;2022-12-01T04:53:20;103583.25;;;-2.07;100.00
57948;BME280;43754;56.992;24.292;2022-12-01T04:55:52;103581.47;;;-2.06;100.00
57948;BME280;43754;56.992;24.292;2022-12-01T04:58:24;103579.78;;;-2.09;100.00
57948;BME280;43754;56.992;24.292;2022-12-01T05:01:00;103582.44;;;-2.10;100.00
57948;BME280;43754;56.992;24.292;2022-12-01T05:03:35;103580.53;;;-2.04;100.00
57948;BME280;43754;56.992;24.292;2022-12-01T05:06:09;103579.75;;;-2.07;100.00
57948;BME280;43754;56.992;24.292;2022-12-01T05:08:43;103584.84;;;-2.00;100.00
57948;BME280;43754;56.992;24.292;2022-12-01T05:11:16;103581.22;;;-1.93;100.00
57948;BME280;43754;56.992;24.292;2022-12-01T05:13:49;103580.22;;;-1.87;100.00
57948;BME280;43754;56.992;24.292;2022-12-01T05:16:22;103578.69;;;-1.97;100.00
57948;BME280;43754;56.992;24.292;2022-12-01T05:18:56;103581.50;;;-2.08;100.00
57948;BME280;43754;56.992;24.292;2022-12-01T05:21:48;103582.41;;;-2.09;100.00
57948;BME280;43754;56.992;24.292;2022-12-01T05:24:21;103581.47;;;-2.05;100.00
57948;BME280;43754;56.992;24.292;2022-12-01T05:26:53;103583.94;;;-1.97;100.00
57948;BME280;43754;56.992;24.292;2022-12-01T05:29:25;103574.28;;;-1.97;100.00
57948;BME280;43754;56.992;24.292;2022-12-01T05:31:57;103581.56;;;-2.11;100.00
57948;BME280;43754;56.992;24.292;2022-12-01T05:34:29;103584.31;;;-2.17;100.00
57948;BME280;43754;56.992;24.292;2022-12-01T05:37:01;103574.75;;;-2.21;100.00
57948;BME280;43754;56.992;24.292;2022-12-01T05:39:35;103591.34;;;-2.17;100.00
57948;BME280;43754;56.992;24.292;2022-12-01T05:42:07;103586.09;;;-2.17;100.00
57948;BME280;43754;56.992;24.292;2022-12-01T05:44:38;103593.06;;;-2.16;100.00
57948;BME280;43754;56.992;24.292;2022-12-01T05:47:10;103582.41;;;-2.09;100.00
57948;BME280;43754;56.992;24.292;2022-12-01T05:49:42;103588.03;;;-2.28;100.00
57948;BME280;43754;56.992;24.292;2022-12-01T05:52:14;103586.28;;;-2.29;100.00
57948;BME280;43754;56.992;24.292;2022-12-01T05:54:48;103586.09;;;-2.19;100.00
57948;BME280;43754;56.992;24.292;2022-12-01T05:57:20;103592.25;;;-2.20;100.00
57948;BME280;43754;56.992;24.292;2022-12-01T05:59:52;103594.06;;;-2.22;100.00
57948;BME280;43754;56.992;24.292;2022-12-01T06:02:24;103587.78;;;-2.15;100.00
57948;BME280;43754;56.992;24.292;2022-12-01T06:04:57;103592.09;;;-2.12;100.00
57948;BME280;43754;56.992;24.292;2022-12-01T06:07:29;103591.16;;;-2.08;100.00
57948;BME280;43754;56.992;24.292;2022-12-01T06:10:05;103597.31;;;-2.09;100.00
57948;BME280;43754;56.992;24.292;2022-12-01T06:12:38;103598.19;;;-2.09;100.00
57948;BME280;43754;56.992;24.292;2022-12-01T06:15:11;103596.44;;;-2.10;100.00
57948;BME280;43754;56.992;24.292;2022-12-01T06:17:44;103598.19;;;-2.09;100.00
57948;BME280;43754;56.992;24.292;2022-12-01T06:20:16;103603.63;;;-2.19;100.00
57948;BME280;43754;56.992;24.292;2022-12-01T06:22:48;103598.31;;;-2.16;100.00
57948;BME280;43754;56.992;24.292;2022-12-01T06:25:21;103599.25;;;-2.19;100.00
57948;BME280;43754;56.992;24.292;2022-12-01T06:27:55;103598.69;;;-2.38;100.00
57948;BME280;43754;56.992;24.292;2022-12-01T06:30:27;103600.50;;;-2.41;100.00
57948;BME280;43754;56.992;24.292;2022-12-01T06:32:59;103604.16;;;-2.48;100.00
57948;BME280;43754;56.992;24.292;2022-12-01T06:35:31;103604.00;;;-2.39;100.00
57948;BME280;43754;56.992;24.292;2022-12-01T06:38:04;103605.75;;;-2.40;100.00
57948;BME280;43754;56.992;24.292;2022-12-01T06:40:37;103603.06;;;-2.37;100.00
57948;BME280;43754;56.992;24.292;2022-12-01T06:43:09;103602.13;;;-2.33;100.00
57948;BME280;43754;56.992;24.292;2022-12-01T06:45:41;103606.69;;;-2.42;100.00
57948;BME280;43754;56.992;24.292;2022-12-01T06:48:13;103613.91;;;-2.55;100.00
57948;BME280;43754;56.992;24.292;2022-12-01T06:50:45;103603.63;;;-2.68;100.00
57948;BME280;43754;56.992;24.292;2022-12-01T06:53:17;103606.19;;;-2.64;100.00
57948;BME280;43754;56.992;24.292;2022-12-01T06:55:50;103604.41;;;-2.63;100.00
57948;BME280;43754;56.992;24.292;2022-12-01T06:58:22;103615.81;;;-2.66;100.00
57948;BME280;43754;56.992;24.292;2022-12-01T07:00:54;103615.88;;;-2.70;100.00
57948;BME280;43754;56.992;24.292;2022-12-01T07:03:28;103613.34;;;-2.75;100.00
57948;BME280;43754;56.992;24.292;2022-12-01T07:06:00;103616.69;;;-2.65;100.00
57948;BME280;43754;56.992;24.292;2022-12-01T07:08:32;103621.78;;;-2.56;100.00
57948;BME280;43754;56.992;24.292;2022-12-01T07:11:07;103621.66;;;-2.49;100.00
57948;BME280;43754;56.992;24.292;2022-12-01T07:13:40;103619.03;;;-2.47;100.00
57948;BME280;43754;56.992;24.292;2022-12-01T07:16:13;103617.25;;;-2.47;100.00
57948;BME280;43754;56.992;24.292;2022-12-01T07:18:45;103617.22;;;-2.45;100.00
57948;BME280;43754;56.992;24.292;2022-12-01T07:21:17;103618.88;;;-2.38;100.00
57948;BME280;43754;56.992;24.292;2022-12-01T07:23:49;103613.63;;;-2.38;100.00
57948;BME280;43754;56.992;24.292;2022-12-01T07:26:22;103620.56;;;-2.37;100.00
57948;BME280;43754;56.992;24.292;2022-12-01T07:28:54;103633.56;;;-2.29;100.00
57948;BME280;43754;56.992;24.292;2022-12-01T07:31:26;103620.44;;;-2.29;100.00
57948;BME280;43754;56.992;24.292;2022-12-01T07:33:58;103623.94;;;-2.29;100.00
57948;BME280;43754;56.992;24.292;2022-12-01T07:36:30;103621.28;;;-2.27;100.00
57948;BME280;43754;56.992;24.292;2022-12-01T07:39:04;103623.69;;;-2.14;100.00
57948;BME280;43754;56.992;24.292;2022-12-01T07:41:37;103615.75;;;-2.12;100.00
57948;BME280;43754;56.992;24.292;2022-12-01T07:44:09;103618.28;;;-2.08;100.00
57948;BME280;43754;56.992;24.292;2022-12-01T07:46:42;103609.44;;;-2.04;100.00
57948;BME280;43754;56.992;24.292;2022-12-01T07:49:14;103613.66;;;-1.94;100.00
57948;BME280;43754;56.992;24.292;2022-12-01T07:51:46;103610.22;;;-1.97;100.00
57948;BME280;43754;56.992;24.292;2022-12-01T07:54:18;103610.25;;;-2.00;100.00
57948;BME280;43754;56.992;24.292;2022-12-01T07:56:53;103605.78;;;-1.94;100.00
57948;BME280;43754;56.992;24.292;2022-12-01T07:59:25;103605.78;;;-1.94;100.00
57948;BME280;43754;56.992;24.292;2022-12-01T08:01:57;103606.47;;;-1.86;100.00
57948;BME280;43754;56.992;24.292;2022-12-01T08:04:29;103615.31;;;-1.90;100.00
57948;BME280;43754;56.992;24.292;2022-12-01T08:07:01;103607.47;;;-1.91;100.00
57948;BME280;43754;56.992;24.292;2022-12-01T08:09:33;103609.91;;;-1.82;100.00
57948;BME280;43754;56.992;24.292;2022-12-01T08:12:07;103608.84;;;-1.73;100.00
57948;BME280;43754;56.992;24.292;2022-12-01T08:14:39;103610.44;;;-1.65;100.00
57948;BME280;43754;56.992;24.292;2022-12-01T08:17:11;103603.16;;;-1.52;100.00
57948;BME280;43754;56.992;24.292;2022-12-01T08:19:43;103611.94;;;-1.53;100.00
57948;BME280;43754;56.992;24.292;2022-12-01T08:22:15;103618.88;;;-1.49;100.00
57948;BME280;43754;56.992;24.292;2022-12-01T08:24:47;103611.63;;;-1.38;100.00
57948;BME280;43754;56.992;24.292;2022-12-01T08:27:21;103614.41;;;-1.46;100.00
57948;BME280;43754;56.992;24.292;2022-12-01T08:29:53;103616.50;;;-1.61;100.00
57948;BME280;43754;56.992;24.292;2022-12-01T08:32:25;103613.13;;;-1.68;100.00
57948;BME280;43754;56.992;24.292;2022-12-01T08:34:57;103609.50;;;-1.62;100.00
57948;BME280;43754;56.992;24.292;2022-12-01T08:37:29;103615.47;;;-1.54;100.00
57948;BME280;43754;56.992;24.292;2022-12-01T08:40:01;103615.25;;;-1.44;100.00
57948;BME280;43754;56.992;24.292;2022-12-01T08:42:34;103617.19;;;-1.53;100.00
57948;BME280;43754;56.992;24.292;2022-12-01T08:45:07;103616.50;;;-1.61;100.00
57948;BME280;43754;56.992;24.292;2022-12-01T08:47:39;103618.34;;;-1.66;100.00
57948;BME280;43754;56.992;24.292;2022-12-01T08:50:11;103618.41;;;-1.69;100.00
57948;BME280;43754;56.992;24.292;2022-12-01T08:52:43;103620.22;;;-1.71;100.00
57948;BME280;43754;56.992;24.292;2022-12-01T08:55:16;103612.03;;;-1.58;100.00
57948;BME280;43754;56.992;24.292;2022-12-01T08:57:49;103617.19;;;-1.53;100.00
57948;BME280;43754;56.992;24.292;2022-12-01T09:00:21;103610.06;;;-1.47;100.00
57948;BME280;43754;56.992;24.292;2022-12-01T09:02:53;103602.81;;;-1.37;100.00
57948;BME280;43754;56.992;24.292;2022-12-01T09:05:25;103606.41;;;-1.41;100.00
57948;BME280;43754;56.992;24.292;2022-12-01T09:07:58;103599.38;;;-1.39;100.00
57948;BME280;43754;56.992;24.292;2022-12-01T09:10:50;103607.97;;;-1.32;100.00
57948;BME280;43754;56.992;24.292;2022-12-01T09:13:24;103601.03;;;-1.35;100.00
57948;BME280;43754;56.992;24.292;2022-12-01T09:15:57;103611.59;;;-1.36;100.00
57948;BME280;43754;56.992;24.292;2022-12-01T09:18:30;103602.63;;;-1.28;100.00
57948;BME280;43754;56.992;24.292;2022-12-01T09:21:09;103605.19;;;-1.25;100.00
57948;BME280;43754;56.992;24.292;2022-12-01T09:23:41;103602.41;;;-1.17;100.00
57948;BME280;43754;56.992;24.292;2022-12-01T09:26:14;103600.56;;;-1.14;100.00
57948;BME280;43754;56.992;24.292;2022-12-01T09:28:52;103596.22;;;-1.16;100.00
57948;BME280;43754;56.992;24.292;2022-12-01T09:31:25;103601.31;;;-1.09;100.00
57948;BME280;43754;56.992;24.292;2022-12-01T09:34:01;103598.91;;;-1.18;100.00
57948;BME280;43754;56.992;24.292;2022-12-01T09:36:34;103586.63;;;-1.17;100.00
57948;BME280;43754;56.992;24.292;2022-12-01T09:39:07;103578.63;;;-1.13;100.00
57948;BME280;43754;56.992;24.292;2022-12-01T09:41:44;103576.91;;;-1.17;100.00
57948;BME280;43754;56.992;24.292;2022-12-01T09:44:28;103581.28;;;-1.16;100.00
57948;BME280;43754;56.992;24.292;2022-12-01T09:47:09;103576.78;;;-1.11;100.00
57948;BME280;43754;56.992;24.292;2022-12-01T09:49:49;103578.31;;;-1.01;100.00
57948;BME280;43754;56.992;24.292;2022-12-01T09:52:24;103568.53;;;-0.96;100.00
57948;BME280;43754;56.992;24.292;2022-12-01T09:54:58;103560.41;;;-0.86;100.00
57948;BME280;43754;56.992;24.292;2022-12-01T09:57:32;103569.81;;;-0.76;100.00
57948;BME280;43754;56.992;24.292;2022-12-01T10:00:12;103568.47;;;-0.93;100.00
57948;BME280;43754;56.992;24.292;2022-12-01T10:02:49;103558.25;;;-1.05;100.00
57948;BME280;43754;56.992;24.292;2022-12-01T10:05:24;103546.19;;;-1.15;100.00
57948;BME280;43754;56.992;24.292;2022-12-01T10:07:59;103549.53;;;-1.08;100.00
57948;BME280;43754;56.992;24.292;2022-12-01T10:10:36;103546.44;;;-0.88;100.00
57948;BME280;43754;56.992;24.292;2022-12-01T10:13:16;103548.53;;;-0.67;100.00
57948;BME280;43754;56.992;24.292;2022-12-01T10:15:55;103557.00;;;-0.56;100.00
57948;BME280;43754;56.992;24.292;2022-12-01T10:18:36;103542.59;;;-0.43;100.00
57948;BME280;43754;56.992;24.292;2022-12-01T10:21:15;103543.19;;;-0.32;100.00
57948;BME280;43754;56.992;24.292;2022-12-01T10:24:01;103543.06;;;-0.27;100.00
57948;BME280;43754;56.992;24.292;2022-12-01T10:26:44;103523.50;;;-0.20;100.00
57948;BME280;43754;56.992;24.292;2022-12-01T10:29:27;103531.31;;;-0.16;100.00
57948;BME280;43754;56.992;24.292;2022-12-01T10:32:09;103528.78;;;-0.20;100.00
57948;BME280;43754;56.992;24.292;2022-12-01T10:34:44;103528.00;;;-0.24;100.00
57948;BME280;43754;56.992;24.292;2022-12-01T10:37:20;103525.25;;;-0.19;100.00
57948;BME280;43754;56.992;24.292;2022-12-01T10:39:55;103521.09;;;-0.28;100.00
57948;BME280;43754;56.992;24.292;2022-12-01T10:42:31;103520.13;;;-0.56;100.00
57948;BME280;43754;56.992;24.292;2022-12-01T10:45:09;103525.59;;;-0.64;100.00
57948;BME280;43754;56.992;24.292;2022-12-01T10:48:09;103521.63;;;-0.46;100.00
57948;BME280;43754;56.992;24.292;2022-12-01T10:50:43;103510.38;;;-0.53;100.00
57948;BME280;43754;56.992;24.292;2022-12-01T10:53:25;103514.53;;;-0.78;100.00
57948;BME280;43754;56.992;24.292;2022-12-01T10:56:03;103513.88;;;-0.86;100.00
57948;BME280;43754;56.992;24.292;2022-12-01T10:58:42;103504.41;;;-0.93;100.00
57948;BME280;43754;56.992;24.292;2022-12-01T11:01:17;103510.56;;;-0.94;100.00
57948;BME280;43754;56.992;24.292;2022-12-01T11:03:55;103509.50;;;-0.87;100.00
57948;BME280;43754;56.992;24.292;2022-12-01T11:06:29;103507.16;;;-0.98;100.00
57948;BME280;43754;56.992;24.292;2022-12-01T11:09:04;103514.97;;;-0.95;100.00
57948;BME280;43754;56.992;24.292;2022-12-01T11:11:38;103510.47;;;-0.89;100.00
57948;BME280;43754;56.992;24.292;2022-12-01T11:14:17;103507.72;;;-0.85;100.00
57948;BME280;43754;56.992;24.292;2022-12-01T11:16:50;103510.78;;;-0.68;100.00
57948;BME280;43754;56.992;24.292;2022-12-01T11:19:31;103504.94;;;-0.47;100.00
57948;BME280;43754;56.992;24.292;2022-12-01T11:22:18;103501.13;;;-0.36;100.00
57948;BME280;43754;56.992;24.292;2022-12-01T11:25:00;103501.84;;;-0.30;100.00
57948;BME280;43754;56.992;24.292;2022-12-01T11:27:34;103512.25;;;-0.25;100.00
57948;BME280;43754;56.992;24.292;2022-12-01T11:30:19;103504.47;;;-0.30;100.00
57948;BME280;43754;56.992;24.292;2022-12-01T11:32:53;103513.28;;;-0.31;100.00
57948;BME280;43754;56.992;24.292;2022-12-01T11:35:29;103506.63;;;-0.44;100.00
57948;BME280;43754;56.992;24.292;2022-12-01T11:38:04;103506.41;;;-0.36;100.00
57948;BME280;43754;56.992;24.292;2022-12-01T11:40:57;103503.69;;;-0.33;100.00
57948;BME280;43754;56.992;24.292;2022-12-01T11:43:32;103501.03;;;-0.33;100.00
57948;BME280;43754;56.992;24.292;2022-12-01T11:46:06;103508.88;;;-0.30;100.00
57948;BME280;43754;56.992;24.292;2022-12-01T11:48:39;103502.56;;;-0.25;100.00
57948;BME280;43754;56.992;24.292;2022-12-01T11:51:25;103498.38;;;-0.32;100.00
57948;BME280;43754;56.992;24.292;2022-12-01T11:54:10;103495.09;;;-0.40;100.00
57948;BME280;43754;56.992;24.292;2022-12-01T11:56:44;103488.41;;;-0.53;100.00
57948;BME280;43754;56.992;24.292;2022-12-01T11:59:35;103489.25;;;-0.51;100.00
57948;BME280;43754;56.992;24.292;2022-12-01T12:02:22;103494.03;;;-0.65;100.00
57948;BME280;43754;56.992;24.292;2022-12-01T12:05:10;103490.22;;;-0.87;100.00
57948;BME280;43754;56.992;24.292;2022-12-01T12:07:53;103483.72;;;-1.08;100.00
57948;BME280;43754;56.992;24.292;2022-12-01T12:10:40;103484.56;;;-1.06;100.00
57948;BME280;43754;56.992;24.292;2022-12-01T12:13:34;103497.97;;;-1.17;100.00
57948;BME280;43754;56.992;24.292;2022-12-01T12:16:14;103491.88;;;-1.17;100.00
57948;BME280;43754;56.992;24.292;2022-12-01T12:18:54;103484.69;;;-1.12;100.00
57948;BME280;43754;56.992;24.292;2022-12-01T12:21:32;103487.09;;;-1.02;100.00
57948;BME280;43754;56.992;24.292;2022-12-01T12:24:30;103489.50;;;-0.93;100.00
57948;BME280;43754;56.992;24.292;2022-12-01T12:27:09;103488.53;;;-0.90;100.00
57948;BME280;43754;56.992;24.292;2022-12-01T12:29:54;103492.06;;;-0.91;100.00
57948;BME280;43754;56.992;24.292;2022-12-01T12:32:46;103493.66;;;-0.84;100.00
57948;BME280;43754;56.992;24.292;2022-12-01T12:35:29;103495.44;;;-0.86;100.00
57948;BME280;43754;56.992;24.292;2022-12-01T12:38:14;103491.03;;;-0.84;100.00
57948;BME280;43754;56.992;24.292;2022-12-01T12:40:52;103492.03;;;-0.89;100.00
57948;BME280;43754;56.992;24.292;2022-12-01T12:43:30;103491.28;;;-0.95;100.00
57948;BME280;43754;56.992;24.292;2022-12-01T12:46:10;103490.22;;;-0.87;100.00
57948;BME280;43754;56.992;24.292;2022-12-01T12:48:56;103496.34;;;-0.87;100.00
57948;BME280;43754;56.992;24.292;2022-12-01T12:51:52;103489.53;;;-0.96;100.00
57948;BME280;43754;56.992;24.292;2022-12-01T12:54:29;103483.34;;;-0.93;100.00
57948;BME280;43754;56.992;24.292;2022-12-01T12:57:16;103477.63;;;-1.09;100.00
57948;BME280;43754;56.992;24.292;2022-12-01T12:59:52;103480.59;;;-1.22;99.46
57948;BME280;43754;56.992;24.292;2022-12-01T13:02:31;103478.16;;;-1.31;100.00
57948;BME280;43754;56.992;24.292;2022-12-01T13:05:17;103477.50;;;-1.41;100.00
57948;BME280;43754;56.992;24.292;2022-12-01T13:07:55;103476.81;;;-1.48;100.00
57948;BME280;43754;56.992;24.292;2022-12-01T13:10:34;103475.19;;;-1.53;100.00
57948;BME280;43754;56.992;24.292;2022-12-01T13:13:18;103473.88;;;-1.72;100.00
57948;BME280;43754;56.992;24.292;2022-12-01T13:15:52;103469.50;;;-1.72;100.00
57948;BME280;43754;56.992;24.292;2022-12-01T13:18:31;103469.88;;;-1.90;100.00